sensor_id;sensor_type;location;lat;lon;timestamp;P1;durP1;ratioP1;P2;durP2;ratioP2
77287;SDS011;66345;42.694;23.346;2023-02-03T00:00:45;6.55;;;2.50;;
77287;SDS011;66345;42.694;23.346;2023-02-03T00:03:11;5.10;;;2.10;;
77287;SDS011;66345;42.694;23.346;2023-02-03T00:05:37;5.87;;;1.97;;
77287;SDS011;66345;42.694;23.346;2023-02-03T00:08:04;3.58;;;1.30;;
77287;SDS011;66345;42.694;23.346;2023-02-03T00:10:34;5.72;;;2.03;;
77287;SDS011;66345;42.694;23.346;2023-02-03T00:13:02;8.20;;;2.28;;
77287;SDS011;66345;42.694;23.346;2023-02-03T00:15:28;3.10;;;1.03;;
77287;SDS011;66345;42.694;23.346;2023-02-03T00:17:53;5.10;;;2.37;;
77287;SDS011;66345;42.694;23.346;2023-02-03T00:20:18;5.20;;;2.50;;
77287;SDS011;66345;42.694;23.346;2023-02-03T00:22:44;4.38;;;1.77;;
77287;SDS011;66345;42.694;23.346;2023-02-03T00:25:09;6.00;;;1.52;;
77287;SDS011;66345;42.694;23.346;2023-02-03T00:27:35;8.17;;;2.53;;
77287;SDS011;66345;42.694;23.346;2023-02-03T00:30:00;6.17;;;2.30;;
77287;SDS011;66345;42.694;23.346;2023-02-03T00:32:26;7.30;;;2.13;;
77287;SDS011;66345;42.694;23.346;2023-02-03T00:34:51;4.00;;;1.43;;
77287;SDS011;66345;42.694;23.346;2023-02-03T00:37:17;6.77;;;2.57;;
77287;SDS011;66345;42.694;23.346;2023-02-03T00:39:42;6.07;;;2.53;;
77287;SDS011;66345;42.694;23.346;2023-02-03T00:42:07;6.97;;;2.87;;
77287;SDS011;66345;42.694;23.346;2023-02-03T00:44:33;5.68;;;2.50;;
77287;SDS011;66345;42.694;23.346;2023-02-03T00:46:58;7.23;;;2.97;;
77287;SDS011;66345;42.694;23.346;2023-02-03T00:49:24;7.10;;;2.00;;
77287;SDS011;66345;42.694;23.346;2023-02-03T00:51:50;6.50;;;2.60;;
77287;SDS011;66345;42.694;23.346;2023-02-03T00:54:15;7.80;;;3.10;;
77287;SDS011;66345;42.694;23.346;2023-02-03T00:56:41;6.63;;;3.03;;
77287;SDS011;66345;42.694;23.346;2023-02-03T00:59:07;8.38;;;3.35;;
77287;SDS011;66345;42.694;23.346;2023-02-03T01:01:33;7.68;;;3.17;;
77287;SDS011;66345;42.694;23.346;2023-02-03T01:03:59;8.47;;;3.30;;
77287;SDS011;66345;42.694;23.346;2023-02-03T01:06:24;5.97;;;2.55;;
77287;SDS011;66345;42.694;23.346;2023-02-03T01:08:50;8.27;;;3.20;;
77287;SDS011;66345;42.694;23.346;2023-02-03T01:11:20;6.43;;;2.50;;
77287;SDS011;66345;42.694;23.346;2023-02-03T01:13:51;5.40;;;2.23;;
77287;SDS011;66345;42.694;23.346;2023-02-03T01:16:18;4.15;;;1.60;;
77287;SDS011;66345;42.694;23.346;2023-02-03T01:18:45;6.53;;;2.63;;
77287;SDS011;66345;42.694;23.346;2023-02-03T01:21:12;5.93;;;2.40;;
77287;SDS011;66345;42.694;23.346;2023-02-03T01:23:39;3.83;;;1.63;;
77287;SDS011;66345;42.694;23.346;2023-02-03T01:26:10;5.63;;;1.80;;
77287;SDS011;66345;42.694;23.346;2023-02-03T01:28:37;5.43;;;2.22;;
77287;SDS011;66345;42.694;23.346;2023-02-03T01:31:11;4.57;;;2.05;;
77287;SDS011;66345;42.694;23.346;2023-02-03T01:33:38;5.50;;;1.85;;
77287;SDS011;66345;42.694;23.346;2023-02-03T01:36:10;3.87;;;1.50;;
77287;SDS011;66345;42.694;23.346;2023-02-03T01:38:36;5.28;;;1.90;;
77287;SDS011;66345;42.694;23.346;2023-02-03T01:41:02;5.10;;;1.60;;
77287;SDS011;66345;42.694;23.346;2023-02-03T01:43:33;3.67;;;1.20;;
77287;SDS011;66345;42.694;23.346;2023-02-03T01:46:02;4.23;;;1.70;;
77287;SDS011;66345;42.694;23.346;2023-02-03T01:48:31;4.00;;;1.20;;
77287;SDS011;66345;42.694;23.346;2023-02-03T01:51:01;5.25;;;1.80;;
77287;SDS011;66345;42.694;23.346;2023-02-03T01:53:29;3.92;;;1.33;;
77287;SDS011;66345;42.694;23.346;2023-02-03T01:55:55;4.25;;;1.50;;
77287;SDS011;66345;42.694;23.346;2023-02-03T01:58:22;4.00;;;1.00;;
77287;SDS011;66345;42.694;23.346;2023-02-03T02:00:51;5.50;;;1.27;;
77287;SDS011;66345;42.694;23.346;2023-02-03T02:03:20;3.83;;;1.27;;
77287;SDS011;66345;42.694;23.346;2023-02-03T02:05:49;3.33;;;1.10;;
77287;SDS011;66345;42.694;23.346;2023-02-03T02:08:20;4.03;;;1.00;;
77287;SDS011;66345;42.694;23.346;2023-02-03T02:10:48;4.33;;;0.70;;
77287;SDS011;66345;42.694;23.346;2023-02-03T02:13:13;4.20;;;0.98;;
77287;SDS011;66345;42.694;23.346;2023-02-03T02:26:22;2.83;;;0.68;;
77287;SDS011;66345;42.694;23.346;2023-02-03T02:29:02;3.67;;;1.38;;
77287;SDS011;66345;42.694;23.346;2023-02-03T02:37:00;5.50;;;1.33;;
77287;SDS011;66345;42.694;23.346;2023-02-03T02:42:16;4.18;;;1.38;;
77287;SDS011;66345;42.694;23.346;2023-02-03T02:45:09;3.90;;;1.50;;
77287;SDS011;66345;42.694;23.346;2023-02-03T02:47:40;4.63;;;1.80;;
77287;SDS011;66345;42.694;23.346;2023-02-03T02:52:35;3.60;;;1.50;;
77287;SDS011;66345;42.694;23.346;2023-02-03T02:55:08;5.35;;;2.00;;
77287;SDS011;66345;42.694;23.346;2023-02-03T02:57:48;2.65;;;1.00;;
77287;SDS011;66345;42.694;23.346;2023-02-03T03:00:16;3.78;;;1.40;;
77287;SDS011;66345;42.694;23.346;2023-02-03T03:02:41;4.53;;;1.10;;
77287;SDS011;66345;42.694;23.346;2023-02-03T03:05:07;3.25;;;1.00;;
77287;SDS011;66345;42.694;23.346;2023-02-03T03:07:57;4.33;;;1.67;;
77287;SDS011;66345;42.694;23.346;2023-02-03T03:10:24;4.03;;;1.40;;
77287;SDS011;66345;42.694;23.346;2023-02-03T03:12:56;2.22;;;0.88;;
77287;SDS011;66345;42.694;23.346;2023-02-03T03:15:26;3.22;;;1.35;;
77287;SDS011;66345;42.694;23.346;2023-02-03T03:18:00;4.05;;;1.55;;
77287;SDS011;66345;42.694;23.346;2023-02-03T03:20:48;2.73;;;0.90;;
77287;SDS011;66345;42.694;23.346;2023-02-03T03:23:23;3.58;;;1.42;;
77287;SDS011;66345;42.694;23.346;2023-02-03T03:28:48;3.72;;;1.52;;
77287;SDS011;66345;42.694;23.346;2023-02-03T03:31:18;3.28;;;1.17;;
77287;SDS011;66345;42.694;23.346;2023-02-03T03:33:44;6.13;;;1.80;;
77287;SDS011;66345;42.694;23.346;2023-02-03T03:36:25;4.10;;;1.75;;
77287;SDS011;66345;42.694;23.346;2023-02-03T03:39:16;4.68;;;1.90;;
77287;SDS011;66345;42.694;23.346;2023-02-03T03:45:02;4.18;;;1.33;;
77287;SDS011;66345;42.694;23.346;2023-02-03T03:47:38;5.50;;;1.77;;
77287;SDS011;66345;42.694;23.346;2023-02-03T03:50:11;4.95;;;2.00;;
77287;SDS011;66345;42.694;23.346;2023-02-03T03:52:41;4.38;;;2.17;;
77287;SDS011;66345;42.694;23.346;2023-02-03T03:55:09;3.05;;;1.17;;
77287;SDS011;66345;42.694;23.346;2023-02-03T03:57:39;4.78;;;2.03;;
77287;SDS011;66345;42.694;23.346;2023-02-03T04:00:09;4.00;;;1.60;;
77287;SDS011;66345;42.694;23.346;2023-02-03T04:02:39;4.10;;;1.42;;
77287;SDS011;66345;42.694;23.346;2023-02-03T04:05:09;5.07;;;1.95;;
77287;SDS011;66345;42.694;23.346;2023-02-03T04:07:39;5.93;;;1.42;;
77287;SDS011;66345;42.694;23.346;2023-02-03T04:10:09;4.80;;;1.38;;
77287;SDS011;66345;42.694;23.346;2023-02-03T04:12:40;3.30;;;1.20;;
77287;SDS011;66345;42.694;23.346;2023-02-03T04:15:05;3.10;;;1.40;;
77287;SDS011;66345;42.694;23.346;2023-02-03T04:17:31;4.53;;;1.93;;
77287;SDS011;66345;42.694;23.346;2023-02-03T04:19:58;5.03;;;1.80;;
77287;SDS011;66345;42.694;23.346;2023-02-03T04:22:23;5.97;;;1.70;;
77287;SDS011;66345;42.694;23.346;2023-02-03T04:24:48;4.40;;;1.60;;
77287;SDS011;66345;42.694;23.346;2023-02-03T04:27:14;4.40;;;2.40;;
77287;SDS011;66345;42.694;23.346;2023-02-03T04:29:39;5.37;;;1.97;;
77287;SDS011;66345;42.694;23.346;2023-02-03T04:32:05;5.83;;;1.80;;
77287;SDS011;66345;42.694;23.346;2023-02-03T04:34:30;4.10;;;1.80;;
77287;SDS011;66345;42.694;23.346;2023-02-03T04:36:56;6.40;;;2.90;;
77287;SDS011;66345;42.694;23.346;2023-02-03T04:39:21;2.45;;;0.98;;
77287;SDS011;66345;42.694;23.346;2023-02-03T04:41:46;5.57;;;2.30;;
77287;SDS011;66345;42.694;23.346;2023-02-03T04:44:12;4.43;;;2.00;;
77287;SDS011;66345;42.694;23.346;2023-02-03T04:46:37;4.80;;;2.10;;
77287;SDS011;66345;42.694;23.346;2023-02-03T04:49:03;3.10;;;1.33;;
77287;SDS011;66345;42.694;23.346;2023-02-03T04:51:28;6.07;;;2.40;;
77287;SDS011;66345;42.694;23.346;2023-02-03T04:53:53;4.85;;;2.03;;
77287;SDS011;66345;42.694;23.346;2023-02-03T04:56:19;4.93;;;1.67;;
77287;SDS011;66345;42.694;23.346;2023-02-03T04:58:44;7.33;;;2.60;;
77287;SDS011;66345;42.694;23.346;2023-02-03T05:01:09;5.43;;;2.20;;
77287;SDS011;66345;42.694;23.346;2023-02-03T05:03:35;4.67;;;2.30;;
77287;SDS011;66345;42.694;23.346;2023-02-03T05:06:01;5.13;;;2.22;;
77287;SDS011;66345;42.694;23.346;2023-02-03T05:08:27;8.93;;;3.25;;
77287;SDS011;66345;42.694;23.346;2023-02-03T05:10:53;4.67;;;1.50;;
77287;SDS011;66345;42.694;23.346;2023-02-03T05:13:18;5.05;;;1.90;;
77287;SDS011;66345;42.694;23.346;2023-02-03T05:15:44;5.63;;;2.50;;
77287;SDS011;66345;42.694;23.346;2023-02-03T05:18:09;4.00;;;1.60;;
77287;SDS011;66345;42.694;23.346;2023-02-03T05:20:34;6.00;;;3.17;;
77287;SDS011;66345;42.694;23.346;2023-02-03T05:23:00;7.97;;;2.53;;
77287;SDS011;66345;42.694;23.346;2023-02-03T05:25:25;4.15;;;1.95;;
77287;SDS011;66345;42.694;23.346;2023-02-03T05:27:51;5.20;;;2.40;;
77287;SDS011;66345;42.694;23.346;2023-02-03T05:30:17;5.80;;;2.33;;
77287;SDS011;66345;42.694;23.346;2023-02-03T05:32:42;4.75;;;2.65;;
77287;SDS011;66345;42.694;23.346;2023-02-03T05:35:08;4.50;;;2.23;;
77287;SDS011;66345;42.694;23.346;2023-02-03T05:37:33;5.37;;;2.57;;
77287;SDS011;66345;42.694;23.346;2023-02-03T05:39:58;5.67;;;2.70;;
77287;SDS011;66345;42.694;23.346;2023-02-03T05:42:47;6.75;;;2.97;;
77287;SDS011;66345;42.694;23.346;2023-02-03T05:45:13;5.15;;;2.55;;
77287;SDS011;66345;42.694;23.346;2023-02-03T05:47:39;6.17;;;2.67;;
77287;SDS011;66345;42.694;23.346;2023-02-03T05:50:05;3.00;;;1.20;;
77287;SDS011;66345;42.694;23.346;2023-02-03T05:52:30;6.30;;;1.77;;
77287;SDS011;66345;42.694;23.346;2023-02-03T05:54:56;5.80;;;2.47;;
77287;SDS011;66345;42.694;23.346;2023-02-03T05:57:21;7.45;;;2.42;;
77287;SDS011;66345;42.694;23.346;2023-02-03T05:59:46;4.30;;;1.93;;
77287;SDS011;66345;42.694;23.346;2023-02-03T06:02:13;5.18;;;2.50;;
77287;SDS011;66345;42.694;23.346;2023-02-03T06:04:39;4.13;;;1.70;;
77287;SDS011;66345;42.694;23.346;2023-02-03T06:07:05;5.68;;;2.60;;
77287;SDS011;66345;42.694;23.346;2023-02-03T06:09:30;7.80;;;2.58;;
77287;SDS011;66345;42.694;23.346;2023-02-03T06:11:56;5.10;;;2.77;;
77287;SDS011;66345;42.694;23.346;2023-02-03T06:14:21;5.00;;;2.13;;
77287;SDS011;66345;42.694;23.346;2023-02-03T06:16:47;4.38;;;1.95;;
77287;SDS011;66345;42.694;23.346;2023-02-03T06:19:12;5.97;;;2.73;;
77287;SDS011;66345;42.694;23.346;2023-02-03T06:21:37;3.67;;;1.40;;
77287;SDS011;66345;42.694;23.346;2023-02-03T06:24:03;5.60;;;2.53;;
77287;SDS011;66345;42.694;23.346;2023-02-03T06:26:28;7.43;;;2.97;;
77287;SDS011;66345;42.694;23.346;2023-02-03T06:28:54;7.63;;;3.58;;
77287;SDS011;66345;42.694;23.346;2023-02-03T06:31:19;5.53;;;1.93;;
77287;SDS011;66345;42.694;23.346;2023-02-03T06:33:45;6.47;;;3.00;;
77287;SDS011;66345;42.694;23.346;2023-02-03T06:36:10;18.00;;;3.80;;
77287;SDS011;66345;42.694;23.346;2023-02-03T06:38:35;9.20;;;3.17;;
77287;SDS011;66345;42.694;23.346;2023-02-03T06:41:01;6.47;;;2.60;;
77287;SDS011;66345;42.694;23.346;2023-02-03T06:43:26;4.70;;;2.20;;
77287;SDS011;66345;42.694;23.346;2023-02-03T06:45:52;8.30;;;3.10;;
77287;SDS011;66345;42.694;23.346;2023-02-03T06:48:17;10.27;;;3.20;;
77287;SDS011;66345;42.694;23.346;2023-02-03T06:50:43;7.77;;;2.37;;
77287;SDS011;66345;42.694;23.346;2023-02-03T06:53:09;8.13;;;2.83;;
77287;SDS011;66345;42.694;23.346;2023-02-03T06:55:34;9.77;;;2.70;;
77287;SDS011;66345;42.694;23.346;2023-02-03T06:57:59;8.95;;;2.88;;
77287;SDS011;66345;42.694;23.346;2023-02-03T07:00:25;8.43;;;2.30;;
77287;SDS011;66345;42.694;23.346;2023-02-03T07:02:55;8.85;;;1.95;;
77287;SDS011;66345;42.694;23.346;2023-02-03T07:05:22;9.05;;;2.97;;
77287;SDS011;66345;42.694;23.346;2023-02-03T07:07:49;3.92;;;1.63;;
77287;SDS011;66345;42.694;23.346;2023-02-03T07:10:15;5.37;;;2.83;;
77287;SDS011;66345;42.694;23.346;2023-02-03T07:12:41;8.25;;;2.50;;
77287;SDS011;66345;42.694;23.346;2023-02-03T07:15:08;5.05;;;2.10;;
77287;SDS011;66345;42.694;23.346;2023-02-03T07:17:34;7.63;;;3.10;;
77287;SDS011;66345;42.694;23.346;2023-02-03T07:19:59;7.03;;;2.30;;
77287;SDS011;66345;42.694;23.346;2023-02-03T07:22:25;5.67;;;2.97;;
77287;SDS011;66345;42.694;23.346;2023-02-03T07:24:50;3.73;;;1.90;;
77287;SDS011;66345;42.694;23.346;2023-02-03T07:27:15;8.33;;;2.70;;
77287;SDS011;66345;42.694;23.346;2023-02-03T07:29:41;6.85;;;2.92;;
77287;SDS011;66345;42.694;23.346;2023-02-03T07:32:06;5.23;;;2.10;;
77287;SDS011;66345;42.694;23.346;2023-02-03T07:34:32;8.07;;;2.00;;
77287;SDS011;66345;42.694;23.346;2023-02-03T07:36:57;8.00;;;1.50;;
77287;SDS011;66345;42.694;23.346;2023-02-03T07:39:23;6.73;;;1.97;;
77287;SDS011;66345;42.694;23.346;2023-02-03T07:41:48;3.65;;;1.60;;
77287;SDS011;66345;42.694;23.346;2023-02-03T07:44:13;7.00;;;2.40;;
77287;SDS011;66345;42.694;23.346;2023-02-03T07:46:39;6.77;;;2.60;;
77287;SDS011;66345;42.694;23.346;2023-02-03T07:49:09;3.90;;;1.77;;
77287;SDS011;66345;42.694;23.346;2023-02-03T07:51:35;4.72;;;1.63;;
77287;SDS011;66345;42.694;23.346;2023-02-03T07:54:01;5.17;;;2.10;;
77287;SDS011;66345;42.694;23.346;2023-02-03T07:56:26;7.90;;;2.17;;
77287;SDS011;66345;42.694;23.346;2023-02-03T07:58:52;4.38;;;1.35;;
77287;SDS011;66345;42.694;23.346;2023-02-03T08:01:18;5.73;;;2.37;;
77287;SDS011;66345;42.694;23.346;2023-02-03T08:03:43;3.80;;;1.60;;
77287;SDS011;66345;42.694;23.346;2023-02-03T08:06:09;3.72;;;1.70;;
77287;SDS011;66345;42.694;23.346;2023-02-03T08:08:34;5.10;;;1.67;;
77287;SDS011;66345;42.694;23.346;2023-02-03T08:11:00;5.13;;;2.13;;
77287;SDS011;66345;42.694;23.346;2023-02-03T08:13:25;5.10;;;1.87;;
77287;SDS011;66345;42.694;23.346;2023-02-03T08:15:51;4.90;;;1.80;;
77287;SDS011;66345;42.694;23.346;2023-02-03T08:18:18;5.43;;;1.45;;
77287;SDS011;66345;42.694;23.346;2023-02-03T08:20:45;7.38;;;2.45;;
77287;SDS011;66345;42.694;23.346;2023-02-03T08:23:11;4.20;;;1.97;;
77287;SDS011;66345;42.694;23.346;2023-02-03T08:25:36;5.40;;;2.08;;
77287;SDS011;66345;42.694;23.346;2023-02-03T08:28:02;6.13;;;1.67;;
77287;SDS011;66345;42.694;23.346;2023-02-03T08:30:27;4.67;;;2.10;;
77287;SDS011;66345;42.694;23.346;2023-02-03T08:32:53;6.67;;;2.67;;
77287;SDS011;66345;42.694;23.346;2023-02-03T08:35:18;5.35;;;1.80;;
77287;SDS011;66345;42.694;23.346;2023-02-03T08:37:44;3.00;;;1.33;;
77287;SDS011;66345;42.694;23.346;2023-02-03T08:40:09;5.23;;;2.00;;
77287;SDS011;66345;42.694;23.346;2023-02-03T08:42:35;6.55;;;1.73;;
77287;SDS011;66345;42.694;23.346;2023-02-03T08:45:01;4.60;;;1.80;;
77287;SDS011;66345;42.694;23.346;2023-02-03T08:47:27;4.95;;;1.92;;
77287;SDS011;66345;42.694;23.346;2023-02-03T08:49:52;4.13;;;1.67;;
77287;SDS011;66345;42.694;23.346;2023-02-03T08:52:18;3.10;;;1.10;;
77287;SDS011;66345;42.694;23.346;2023-02-03T08:54:43;6.60;;;1.88;;
77287;SDS011;66345;42.694;23.346;2023-02-03T08:57:09;4.63;;;1.43;;
77287;SDS011;66345;42.694;23.346;2023-02-03T08:59:39;4.82;;;1.88;;
77287;SDS011;66345;42.694;23.346;2023-02-03T09:02:07;5.55;;;1.70;;
77287;SDS011;66345;42.694;23.346;2023-02-03T09:04:35;3.67;;;1.45;;
77287;SDS011;66345;42.694;23.346;2023-02-03T09:07:01;2.87;;;0.90;;
77287;SDS011;66345;42.694;23.346;2023-02-03T09:09:27;5.38;;;2.15;;
77287;SDS011;66345;42.694;23.346;2023-02-03T09:11:53;4.87;;;1.67;;
77287;SDS011;66345;42.694;23.346;2023-02-03T09:14:27;3.60;;;1.65;;
77287;SDS011;66345;42.694;23.346;2023-02-03T09:16:57;4.18;;;1.80;;
77287;SDS011;66345;42.694;23.346;2023-02-03T09:19:23;4.93;;;1.73;;
77287;SDS011;66345;42.694;23.346;2023-02-03T09:21:48;3.83;;;1.40;;
77287;SDS011;66345;42.694;23.346;2023-02-03T09:24:15;4.15;;;1.38;;
77287;SDS011;66345;42.694;23.346;2023-02-03T09:26:41;4.03;;;1.70;;
77287;SDS011;66345;42.694;23.346;2023-02-03T09:29:07;4.18;;;1.70;;
77287;SDS011;66345;42.694;23.346;2023-02-03T09:31:33;3.10;;;1.20;;
77287;SDS011;66345;42.694;23.346;2023-02-03T09:33:58;4.50;;;1.37;;
77287;SDS011;66345;42.694;23.346;2023-02-03T09:36:24;3.47;;;1.25;;
77287;SDS011;66345;42.694;23.346;2023-02-03T09:38:50;3.88;;;1.40;;
77287;SDS011;66345;42.694;23.346;2023-02-03T09:46:55;4.20;;;1.40;;
77287;SDS011;66345;42.694;23.346;2023-02-03T09:49:24;3.38;;;1.48;;
77287;SDS011;66345;42.694;23.346;2023-02-03T09:54:43;5.18;;;1.60;;
77287;SDS011;66345;42.694;23.346;2023-02-03T09:57:31;3.53;;;1.00;;
77287;SDS011;66345;42.694;23.346;2023-02-03T10:00:12;3.28;;;1.30;;
77287;SDS011;66345;42.694;23.346;2023-02-03T10:11:10;3.25;;;0.90;;
77287;SDS011;66345;42.694;23.346;2023-02-03T10:19:15;4.18;;;1.40;;
77287;SDS011;66345;42.694;23.346;2023-02-03T10:21:56;3.87;;;1.10;;
77287;SDS011;66345;42.694;23.346;2023-02-03T10:24:28;3.90;;;1.33;;
77287;SDS011;66345;42.694;23.346;2023-02-03T10:27:19;3.58;;;1.40;;
77287;SDS011;66345;42.694;23.346;2023-02-03T10:30:03;3.53;;;1.27;;
77287;SDS011;66345;42.694;23.346;2023-02-03T10:32:29;3.30;;;1.25;;
77287;SDS011;66345;42.694;23.346;2023-02-03T10:34:55;4.10;;;1.43;;
77287;SDS011;66345;42.694;23.346;2023-02-03T10:39:56;9.30;;;3.63;;
77287;SDS011;66345;42.694;23.346;2023-02-03T10:42:23;4.85;;;1.40;;
77287;SDS011;66345;42.694;23.346;2023-02-03T10:44:56;2.53;;;0.73;;
77287;SDS011;66345;42.694;23.346;2023-02-03T10:49:51;5.07;;;1.67;;
77287;SDS011;66345;42.694;23.346;2023-02-03T10:52:31;4.10;;;1.65;;
77287;SDS011;66345;42.694;23.346;2023-02-03T10:55:05;4.28;;;1.60;;
77287;SDS011;66345;42.694;23.346;2023-02-03T10:57:34;4.13;;;1.42;;
77287;SDS011;66345;42.694;23.346;2023-02-03T11:00:04;2.67;;;0.77;;
77287;SDS011;66345;42.694;23.346;2023-02-03T11:02:32;3.90;;;0.93;;
77287;SDS011;66345;42.694;23.346;2023-02-03T11:05:17;3.85;;;1.20;;
77287;SDS011;66345;42.694;23.346;2023-02-03T11:07:48;2.92;;;0.90;;
77287;SDS011;66345;42.694;23.346;2023-02-03T11:15:53;4.25;;;1.33;;
77287;SDS011;66345;42.694;23.346;2023-02-03T11:18:35;4.53;;;1.45;;
77287;SDS011;66345;42.694;23.346;2023-02-03T11:21:08;6.75;;;2.70;;
77287;SDS011;66345;42.694;23.346;2023-02-03T11:23:56;3.87;;;1.00;;
77287;SDS011;66345;42.694;23.346;2023-02-03T11:26:29;2.88;;;1.20;;
77287;SDS011;66345;42.694;23.346;2023-02-03T11:29:00;4.70;;;0.98;;
77287;SDS011;66345;42.694;23.346;2023-02-03T11:31:30;4.90;;;1.40;;
77287;SDS011;66345;42.694;23.346;2023-02-03T11:34:02;3.92;;;1.60;;
77287;SDS011;66345;42.694;23.346;2023-02-03T11:36:39;4.77;;;1.37;;
77287;SDS011;66345;42.694;23.346;2023-02-03T11:41:49;3.42;;;1.38;;
77287;SDS011;66345;42.694;23.346;2023-02-03T11:44:16;5.47;;;2.13;;
77287;SDS011;66345;42.694;23.346;2023-02-03T11:46:48;4.47;;;1.48;;
77287;SDS011;66345;42.694;23.346;2023-02-03T11:52:01;3.90;;;1.23;;
77287;SDS011;66345;42.694;23.346;2023-02-03T12:00:08;5.68;;;1.48;;
77287;SDS011;66345;42.694;23.346;2023-02-03T12:10:48;3.75;;;1.17;;
77287;SDS011;66345;42.694;23.346;2023-02-03T12:29:59;3.65;;;0.70;;
77287;SDS011;66345;42.694;23.346;2023-02-03T12:32:37;2.80;;;0.87;;
77287;SDS011;66345;42.694;23.346;2023-02-03T12:37:55;3.22;;;0.60;;
77287;SDS011;66345;42.694;23.346;2023-02-03T12:45:37;3.17;;;0.90;;
77287;SDS011;66345;42.694;23.346;2023-02-03T12:48:05;3.88;;;0.85;;
77287;SDS011;66345;42.694;23.346;2023-02-03T12:50:40;7.07;;;3.05;;
77287;SDS011;66345;42.694;23.346;2023-02-03T12:55:50;3.63;;;1.20;;
77287;SDS011;66345;42.694;23.346;2023-02-03T13:01:15;2.70;;;1.08;;
77287;SDS011;66345;42.694;23.346;2023-02-03T13:12:15;3.87;;;1.50;;
77287;SDS011;66345;42.694;23.346;2023-02-03T13:14:45;5.68;;;1.63;;
77287;SDS011;66345;42.694;23.346;2023-02-03T13:17:19;4.57;;;1.63;;
77287;SDS011;66345;42.694;23.346;2023-02-03T13:20:03;4.15;;;1.70;;
77287;SDS011;66345;42.694;23.346;2023-02-03T13:22:37;3.88;;;1.20;;
77287;SDS011;66345;42.694;23.346;2023-02-03T13:33:24;3.47;;;0.80;;
77287;SDS011;66345;42.694;23.346;2023-02-03T13:36:09;2.95;;;0.95;;
77287;SDS011;66345;42.694;23.346;2023-02-03T13:44:04;3.63;;;1.42;;
77287;SDS011;66345;42.694;23.346;2023-02-03T13:46:39;6.47;;;2.63;;
77287;SDS011;66345;42.694;23.346;2023-02-03T13:49:06;4.03;;;1.40;;
77287;SDS011;66345;42.694;23.346;2023-02-03T13:51:42;4.45;;;1.65;;
77287;SDS011;66345;42.694;23.346;2023-02-03T13:54:14;4.28;;;1.90;;
77287;SDS011;66345;42.694;23.346;2023-02-03T13:56:56;6.32;;;1.98;;
77287;SDS011;66345;42.694;23.346;2023-02-03T14:12:38;5.25;;;2.20;;
77287;SDS011;66345;42.694;23.346;2023-02-03T14:15:21;3.83;;;1.63;;
77287;SDS011;66345;42.694;23.346;2023-02-03T14:17:54;4.63;;;1.90;;
77287;SDS011;66345;42.694;23.346;2023-02-03T14:22:54;4.35;;;1.60;;
77287;SDS011;66345;42.694;23.346;2023-02-03T14:25:23;5.72;;;2.42;;
77287;SDS011;66345;42.694;23.346;2023-02-03T14:28:01;5.37;;;1.83;;
77287;SDS011;66345;42.694;23.346;2023-02-03T14:30:30;4.53;;;2.20;;
77287;SDS011;66345;42.694;23.346;2023-02-03T14:32:56;3.28;;;1.30;;
77287;SDS011;66345;42.694;23.346;2023-02-03T14:37:57;9.02;;;2.50;;
77287;SDS011;66345;42.694;23.346;2023-02-03T14:52:10;5.10;;;2.20;;
77287;SDS011;66345;42.694;23.346;2023-02-03T14:57:12;5.22;;;1.40;;
77287;SDS011;66345;42.694;23.346;2023-02-03T15:02:35;5.00;;;1.80;;
77287;SDS011;66345;42.694;23.346;2023-02-03T15:13:52;4.47;;;1.73;;
77287;SDS011;66345;42.694;23.346;2023-02-03T15:16:19;4.27;;;1.20;;
77287;SDS011;66345;42.694;23.346;2023-02-03T15:18:51;5.28;;;1.80;;
77287;SDS011;66345;42.694;23.346;2023-02-03T15:21:21;4.70;;;1.90;;
77287;SDS011;66345;42.694;23.346;2023-02-03T15:23:48;6.05;;;2.10;;
77287;SDS011;66345;42.694;23.346;2023-02-03T15:26:16;4.95;;;1.95;;
77287;SDS011;66345;42.694;23.346;2023-02-03T15:31:26;7.35;;;2.30;;
77287;SDS011;66345;42.694;23.346;2023-02-03T15:34:14;4.82;;;1.88;;
77287;SDS011;66345;42.694;23.346;2023-02-03T15:36:51;7.88;;;3.03;;
77287;SDS011;66345;42.694;23.346;2023-02-03T15:41:45;6.50;;;2.67;;
77287;SDS011;66345;42.694;23.346;2023-02-03T15:44:19;10.10;;;3.25;;
77287;SDS011;66345;42.694;23.346;2023-02-03T15:46:51;5.43;;;2.17;;
77287;SDS011;66345;42.694;23.346;2023-02-03T15:49:23;6.95;;;3.33;;
77287;SDS011;66345;42.694;23.346;2023-02-03T15:52:12;6.90;;;2.90;;
77287;SDS011;66345;42.694;23.346;2023-02-03T15:54:44;8.90;;;3.55;;
77287;SDS011;66345;42.694;23.346;2023-02-03T15:59:43;9.17;;;3.70;;
77287;SDS011;66345;42.694;23.346;2023-02-03T16:02:21;8.07;;;2.87;;
77287;SDS011;66345;42.694;23.346;2023-02-03T16:05:01;8.70;;;3.28;;
77287;SDS011;66345;42.694;23.346;2023-02-03T16:07:29;10.63;;;3.85;;
77287;SDS011;66345;42.694;23.346;2023-02-03T16:09:55;8.55;;;3.00;;
77287;SDS011;66345;42.694;23.346;2023-02-03T16:14:52;19.83;;;7.43;;
77287;SDS011;66345;42.694;23.346;2023-02-03T16:19:51;9.95;;;3.75;;
77287;SDS011;66345;42.694;23.346;2023-02-03T16:22:29;9.98;;;3.88;;
77287;SDS011;66345;42.694;23.346;2023-02-03T16:27:44;5.80;;;2.57;;
77287;SDS011;66345;42.694;23.346;2023-02-03T16:30:37;6.82;;;2.78;;
77287;SDS011;66345;42.694;23.346;2023-02-03T16:33:22;7.28;;;2.80;;
77287;SDS011;66345;42.694;23.346;2023-02-03T16:36:10;5.38;;;2.33;;
77287;SDS011;66345;42.694;23.346;2023-02-03T16:38:56;6.28;;;2.08;;
77287;SDS011;66345;42.694;23.346;2023-02-03T16:41:44;6.00;;;2.20;;
77287;SDS011;66345;42.694;23.346;2023-02-03T16:44:28;9.15;;;3.10;;
77287;SDS011;66345;42.694;23.346;2023-02-03T16:47:22;8.32;;;2.42;;
77287;SDS011;66345;42.694;23.346;2023-02-03T16:50:15;6.72;;;2.70;;
77287;SDS011;66345;42.694;23.346;2023-02-03T16:53:04;7.47;;;2.88;;
77287;SDS011;66345;42.694;23.346;2023-02-03T16:55:30;7.63;;;2.77;;
77287;SDS011;66345;42.694;23.346;2023-02-03T16:57:55;8.52;;;3.00;;
77287;SDS011;66345;42.694;23.346;2023-02-03T17:00:21;7.25;;;3.00;;
77287;SDS011;66345;42.694;23.346;2023-02-03T17:02:47;6.37;;;2.80;;
77287;SDS011;66345;42.694;23.346;2023-02-03T17:05:14;7.60;;;3.30;;
77287;SDS011;66345;42.694;23.346;2023-02-03T17:07:40;8.80;;;2.95;;
77287;SDS011;66345;42.694;23.346;2023-02-03T17:10:05;8.60;;;2.80;;
77287;SDS011;66345;42.694;23.346;2023-02-03T17:12:31;6.97;;;3.15;;
77287;SDS011;66345;42.694;23.346;2023-02-03T17:14:57;11.52;;;3.80;;
77287;SDS011;66345;42.694;23.346;2023-02-03T17:17:23;10.90;;;3.55;;
77287;SDS011;66345;42.694;23.346;2023-02-03T17:19:49;11.07;;;3.80;;
77287;SDS011;66345;42.694;23.346;2023-02-03T17:22:14;9.90;;;4.60;;
77287;SDS011;66345;42.694;23.346;2023-02-03T17:24:40;25.85;;;8.63;;
77287;SDS011;66345;42.694;23.346;2023-02-03T17:27:05;10.10;;;4.40;;
77287;SDS011;66345;42.694;23.346;2023-02-03T17:29:31;19.97;;;8.00;;
77287;SDS011;66345;42.694;23.346;2023-02-03T17:31:56;13.70;;;5.70;;
77287;SDS011;66345;42.694;23.346;2023-02-03T17:34:21;17.98;;;6.53;;
77287;SDS011;66345;42.694;23.346;2023-02-03T17:36:47;14.87;;;5.90;;
77287;SDS011;66345;42.694;23.346;2023-02-03T17:39:12;17.10;;;6.40;;
77287;SDS011;66345;42.694;23.346;2023-02-03T17:41:38;16.43;;;5.63;;
77287;SDS011;66345;42.694;23.346;2023-02-03T17:44:03;14.73;;;5.63;;
77287;SDS011;66345;42.694;23.346;2023-02-03T17:46:29;18.90;;;7.47;;
77287;SDS011;66345;42.694;23.346;2023-02-03T17:48:55;20.47;;;7.67;;
77287;SDS011;66345;42.694;23.346;2023-02-03T17:51:22;24.38;;;8.68;;
77287;SDS011;66345;42.694;23.346;2023-02-03T17:53:54;15.13;;;6.03;;
77287;SDS011;66345;42.694;23.346;2023-02-03T17:56:22;21.07;;;7.63;;